createdAt,value
2022-10-24T00:01:54.112Z,12.03
2022-10-24T00:04:57.043Z,11.60
2022-10-24T00:07:59.921Z,12.05
2022-10-24T00:11:02.868Z,12.00
2022-10-24T00:14:05.838Z,11.73
2022-10-24T00:17:08.712Z,11.97
2022-10-24T00:20:12.090Z,12.05
2022-10-24T00:23:15.421Z,12.02
2022-10-24T00:26:18.318Z,10.88
2022-10-24T00:29:21.203Z,11.77
2022-10-24T00:32:24.094Z,11.57
2022-10-24T00:35:27.183Z,12.60
2022-10-24T00:38:30.075Z,12.57
2022-10-24T00:41:35.165Z,11.90
2022-10-24T00:44:39.030Z,11.53
2022-10-24T00:47:42.046Z,12.10
2022-10-24T00:50:45.819Z,12.38
2022-10-24T00:53:50.029Z,12.00
2022-10-24T00:57:24.987Z,12.43
2022-10-24T01:00:32.177Z,11.70
2022-10-24T01:03:35.378Z,12.77
2022-10-24T01:06:57.972Z,13.45
2022-10-24T01:10:37.644Z,12.90
2022-10-24T01:14:17.140Z,13.20
2022-10-24T01:17:27.699Z,14.90
2022-10-24T01:21:08.253Z,13.13
2022-10-24T01:24:30.088Z,13.05
2022-10-24T01:27:51.561Z,13.93
2022-10-24T01:31:08.479Z,13.63
2022-10-24T01:34:37.276Z,13.30
2022-10-24T01:37:52.513Z,13.60
2022-10-24T01:41:00.807Z,14.43
2022-10-24T01:44:16.541Z,13.75
2022-10-24T01:47:22.318Z,14.30
2022-10-24T01:50:25.364Z,15.17
2022-10-24T01:53:29.310Z,14.80
2022-10-24T01:56:33.085Z,14.15
2022-10-24T01:59:46.927Z,13.93
2022-10-24T02:03:17.270Z,14.63
2022-10-24T02:06:25.776Z,14.40
2022-10-24T02:09:28.860Z,14.67
2022-10-24T02:12:31.765Z,14.30
2022-10-24T02:15:40.133Z,14.70
2022-10-24T02:18:43.074Z,14.45
2022-10-24T02:21:53.325Z,14.53
2022-10-24T02:25:05.027Z,13.93
2022-10-24T02:28:15.723Z,14.02
2022-10-24T02:31:21.797Z,14.15
2022-10-24T02:34:25.465Z,14.88
2022-10-24T02:37:28.819Z,14.77
2022-10-24T02:40:31.771Z,15.10
2022-10-24T02:43:34.656Z,14.75
2022-10-24T02:46:37.564Z,15.05
2022-10-24T02:49:40.923Z,14.98
2022-10-24T02:52:44.313Z,14.70
2022-10-24T02:55:47.537Z,16.23
2022-10-24T02:58:50.424Z,15.55
2022-10-24T03:01:53.428Z,14.75
2022-10-24T03:04:56.365Z,16.10
2022-10-24T03:07:59.236Z,15.70
2022-10-24T03:11:02.625Z,16.43
2022-10-24T03:14:05.724Z,17.15
2022-10-24T03:17:08.625Z,16.50
2022-10-24T03:20:11.630Z,17.10
2022-10-24T03:23:14.621Z,17.47
2022-10-24T03:26:17.554Z,17.37
2022-10-24T03:29:20.462Z,17.13
2022-10-24T03:32:23.421Z,17.95
2022-10-24T03:35:26.364Z,16.50
2022-10-24T03:38:29.266Z,18.17
2022-10-24T03:41:32.150Z,17.97
2022-10-24T03:44:35.051Z,16.95
2022-10-24T03:47:38.019Z,18.63
2022-10-24T03:50:41.034Z,17.88
2022-10-24T03:53:43.990Z,17.97
2022-10-24T03:56:47.953Z,16.60
2022-10-24T03:59:50.909Z,15.38
2022-10-24T04:02:54.017Z,17.15
2022-10-24T04:05:56.912Z,16.35
2022-10-24T04:08:59.915Z,17.13
2022-10-24T04:12:02.901Z,18.43
2022-10-24T04:15:06.407Z,18.42
2022-10-24T04:18:09.834Z,18.40
2022-10-24T04:21:12.869Z,18.55
2022-10-24T04:24:15.999Z,18.70
2022-10-24T04:27:19.519Z,18.10
2022-10-24T04:30:22.433Z,19.15
2022-10-24T04:33:25.631Z,18.35
2022-10-24T04:36:28.613Z,17.35
2022-10-24T04:39:31.531Z,17.60
2022-10-24T04:42:34.572Z,18.97
2022-10-24T04:45:37.463Z,19.67
2022-10-24T04:48:40.382Z,18.65
2022-10-24T04:51:43.265Z,18.83
2022-10-24T04:54:46.168Z,16.27
2022-10-24T04:57:49.097Z,16.53
2022-10-24T05:00:52.240Z,15.07
2022-10-24T05:03:55.235Z,17.67
2022-10-24T05:06:58.205Z,16.50
2022-10-24T05:10:01.117Z,16.47
2022-10-24T05:13:04.265Z,16.30
2022-10-24T05:16:07.278Z,18.77
2022-10-24T05:19:10.218Z,17.45
2022-10-24T05:22:13.229Z,18.70
2022-10-24T05:25:16.148Z,19.13
2022-10-24T05:28:19.111Z,19.03
2022-10-24T05:31:22.086Z,18.60
2022-10-24T05:34:25.113Z,16.88
2022-10-24T05:37:28.186Z,21.02
2022-10-24T05:40:31.156Z,17.07
2022-10-24T05:43:34.213Z,16.63
2022-10-24T05:46:37.269Z,17.05
2022-10-24T05:49:40.183Z,17.25
2022-10-24T05:52:46.232Z,17.05
2022-10-24T05:55:50.210Z,18.40
2022-10-24T05:58:53.111Z,17.80
2022-10-24T06:01:56.495Z,15.82
2022-10-24T06:05:02.117Z,17.65
2022-10-24T06:08:05.150Z,17.88
2022-10-24T06:11:11.307Z,17.63
2022-10-24T06:14:14.357Z,17.83
2022-10-24T06:17:17.387Z,17.42
2022-10-24T06:20:23.397Z,16.88
2022-10-24T06:23:26.318Z,15.73
2022-10-24T06:26:29.267Z,16.43
2022-10-24T06:29:32.255Z,18.07
2022-10-24T06:32:35.168Z,18.95
2022-10-24T06:35:38.172Z,17.17
2022-10-24T06:38:41.266Z,17.42
2022-10-24T06:41:44.228Z,16.77
2022-10-24T06:44:51.361Z,17.40
2022-10-24T06:47:54.697Z,15.38
2022-10-24T06:50:57.867Z,17.20
2022-10-24T06:54:00.820Z,17.25
2022-10-24T06:57:03.777Z,19.27
2022-10-24T07:00:07.354Z,17.77
2022-10-24T07:03:15.095Z,19.65
2022-10-24T07:06:28.842Z,21.35
2022-10-24T07:09:31.818Z,19.85
2022-10-24T07:12:34.809Z,20.00
2022-10-24T07:15:37.712Z,19.70
2022-10-24T07:18:40.756Z,18.52
2022-10-24T07:21:43.697Z,19.83
2022-10-24T07:24:46.754Z,19.65
2022-10-24T07:27:52.600Z,17.17
2022-10-24T07:30:55.525Z,18.10
2022-10-24T07:33:58.836Z,15.73
2022-10-24T07:37:03.712Z,16.10
2022-10-24T07:40:07.133Z,18.05
2022-10-24T07:43:10.170Z,15.67
2022-10-24T07:46:14.724Z,15.57
2022-10-24T07:49:17.671Z,15.70
2022-10-24T07:52:20.595Z,15.23
2022-10-24T07:55:23.530Z,14.07
2022-10-24T07:58:27.028Z,13.73
2022-10-24T08:01:30.056Z,15.60
2022-10-24T08:04:33.020Z,14.65
2022-10-24T08:07:36.834Z,14.27
2022-10-24T08:10:39.868Z,14.75
2022-10-24T08:13:42.831Z,14.83
2022-10-24T08:16:45.762Z,13.53
2022-10-24T08:19:48.920Z,14.75
2022-10-24T08:22:52.110Z,14.50
2022-10-24T08:25:55.056Z,14.30
2022-10-24T08:28:58.328Z,13.77
2022-10-24T08:32:01.363Z,14.30
2022-10-24T08:35:05.206Z,14.30
2022-10-24T08:38:08.564Z,15.45
2022-10-24T08:41:28.007Z,16.38
2022-10-24T08:44:41.251Z,15.77
2022-10-24T08:48:05.794Z,16.17
2022-10-24T08:51:30.925Z,15.98
2022-10-24T08:54:37.373Z,17.15
2022-10-24T08:57:40.312Z,16.90
2022-10-24T09:00:44.685Z,17.20
2022-10-24T09:03:57.583Z,18.23
2022-10-24T09:07:05.015Z,16.42
2022-10-24T09:10:22.809Z,16.75
2022-10-24T09:13:27.318Z,17.88
2022-10-24T09:16:30.350Z,17.43
2022-10-24T09:19:33.309Z,18.40
2022-10-24T09:22:38.451Z,19.10
2022-10-24T09:25:46.884Z,18.42
2022-10-24T09:28:56.321Z,19.23
2022-10-24T09:31:59.803Z,20.60
2022-10-24T09:35:24.029Z,21.23
2022-10-24T09:38:33.486Z,21.17
2022-10-24T09:41:36.459Z,20.25
2022-10-24T09:44:41.269Z,18.70
2022-10-24T09:47:44.550Z,19.73
2022-10-24T09:50:48.310Z,19.83
2022-10-24T09:54:02.187Z,20.58
2022-10-24T09:57:08.262Z,19.67
2022-10-24T10:00:34.398Z,19.92
2022-10-24T10:03:37.357Z,20.10
2022-10-24T10:06:50.256Z,19.87
2022-10-24T10:09:59.083Z,20.13
2022-10-24T10:13:20.029Z,17.77
2022-10-24T10:16:26.609Z,16.63
2022-10-24T10:19:30.264Z,16.77
2022-10-24T10:22:33.897Z,17.63
2022-10-24T10:25:37.181Z,17.83
2022-10-24T10:29:02.053Z,18.55
2022-10-24T10:32:12.734Z,17.52
2022-10-24T10:35:54.375Z,18.37
2022-10-24T10:39:34.637Z,17.73
2022-10-24T10:42:44.314Z,18.25
2022-10-24T10:46:12.118Z,18.23
2022-10-24T10:49:25.201Z,19.77
2022-10-24T10:52:48.045Z,18.20
2022-10-24T10:56:02.920Z,19.43
2022-10-24T10:59:29.455Z,18.73
2022-10-24T11:02:59.823Z,21.92
2022-10-24T11:06:32.569Z,21.13
2022-10-24T11:09:43.794Z,20.40
2022-10-24T11:12:49.545Z,23.13
2022-10-24T11:15:54.355Z,23.85
2022-10-24T11:19:03.935Z,21.00
2022-10-24T11:22:06.913Z,20.38
2022-10-24T11:25:26.286Z,19.80
2022-10-24T11:28:52.507Z,20.20
2022-10-24T11:31:58.228Z,21.88
2022-10-24T11:35:25.471Z,19.95
2022-10-24T11:38:28.378Z,23.10
2022-10-24T11:41:56.601Z,21.77
2022-10-24T11:45:18.004Z,21.77
2022-10-24T11:48:38.098Z,22.38
2022-10-24T11:51:55.758Z,27.65
2022-10-24T11:55:07.306Z,20.85
2022-10-24T11:58:14.406Z,22.93
2022-10-24T12:01:45.506Z,21.67
2022-10-24T12:05:11.483Z,21.45
2022-10-24T12:08:43.116Z,23.70
2022-10-24T12:11:51.832Z,22.33
2022-10-24T12:15:10.117Z,22.00
2022-10-24T12:18:20.220Z,24.57
2022-10-24T12:21:27.953Z,25.00
2022-10-24T12:24:39.002Z,21.92
2022-10-24T12:27:42.211Z,21.90
2022-10-24T12:30:45.224Z,21.20
2022-10-24T12:34:07.848Z,24.90
2022-10-24T12:37:20.225Z,20.85
2022-10-24T12:40:45.053Z,20.92
2022-10-24T12:43:50.989Z,21.83
2022-10-24T12:46:54.560Z,21.70
2022-10-24T12:49:58.090Z,20.77
2022-10-24T12:53:30.731Z,22.10
2022-10-24T12:56:34.076Z,20.80
2022-10-24T12:59:46.736Z,24.83
2022-10-24T13:03:05.797Z,23.33
2022-10-24T13:06:27.849Z,21.13
2022-10-24T13:10:07.781Z,21.30
2022-10-24T13:13:54.113Z,21.77
2022-10-24T13:17:13.284Z,20.85
2022-10-24T13:20:22.008Z,22.17
2022-10-24T13:23:26.654Z,20.57
2022-10-24T13:26:39.381Z,23.25
2022-10-24T13:29:44.056Z,22.50
2022-10-24T13:32:47.263Z,21.65
2022-10-24T13:35:50.655Z,22.53
2022-10-24T13:38:58.258Z,21.23
2022-10-24T13:42:06.931Z,23.17
2022-10-24T13:45:47.159Z,21.30
2022-10-24T13:48:50.143Z,23.13
2022-10-24T13:51:53.748Z,21.13
2022-10-24T13:55:33.411Z,24.63
2022-10-24T13:58:44.293Z,20.92
2022-10-24T14:01:47.520Z,22.65
2022-10-24T14:04:53.675Z,23.02
2022-10-24T14:07:59.709Z,23.07
2022-10-24T14:11:04.789Z,22.20
2022-10-24T14:14:10.950Z,22.80
2022-10-24T14:17:33.753Z,22.33
2022-10-24T14:20:37.281Z,22.90
2022-10-24T14:23:40.955Z,23.37
2022-10-24T14:26:45.655Z,23.67
2022-10-24T14:30:00.349Z,22.10
2022-10-24T14:33:20.677Z,22.60
2022-10-24T14:36:32.247Z,25.23
2022-10-24T14:39:35.381Z,24.33
2022-10-24T14:42:38.657Z,24.30
2022-10-24T14:45:41.617Z,22.40
2022-10-24T14:48:48.783Z,23.63
2022-10-24T14:51:55.653Z,24.05
2022-10-24T14:55:01.162Z,23.27
2022-10-24T14:58:04.057Z,26.40
2022-10-24T15:01:06.990Z,25.67
2022-10-24T15:04:37.417Z,23.55
2022-10-24T15:07:44.919Z,23.20
2022-10-24T15:11:21.963Z,22.80
2022-10-24T15:14:40.057Z,23.10
2022-10-24T15:17:42.957Z,24.92
2022-10-24T15:20:46.670Z,23.65
2022-10-24T15:23:53.632Z,24.25
2022-10-24T15:27:12.700Z,22.73
2022-10-24T15:30:22.184Z,22.97
2022-10-24T15:33:25.154Z,23.88
2022-10-24T15:36:31.634Z,23.52
2022-10-24T15:39:34.890Z,21.65
2022-10-24T15:42:37.787Z,21.63
2022-10-24T15:45:40.786Z,24.87
2022-10-24T15:48:43.961Z,31.33
2022-10-24T15:51:50.035Z,30.38
2022-10-24T15:54:53.640Z,25.58
2022-10-24T15:58:03.175Z,22.87
2022-10-24T16:01:06.521Z,23.30
2022-10-24T16:04:09.770Z,24.35
2022-10-24T16:07:12.686Z,27.52
2022-10-24T16:10:16.528Z,31.92
2022-10-24T16:13:20.718Z,43.43
2022-10-24T16:16:23.610Z,43.17
2022-10-24T16:19:26.965Z,41.33
2022-10-24T16:22:29.846Z,31.42
2022-10-24T16:25:34.751Z,30.27
2022-10-24T16:28:37.651Z,32.23
2022-10-24T16:31:42.198Z,33.87
2022-10-24T16:34:48.959Z,30.55
2022-10-24T16:37:52.599Z,32.38
2022-10-24T16:40:55.518Z,32.22
2022-10-24T16:43:58.543Z,31.07
2022-10-24T16:47:01.447Z,26.97
2022-10-24T16:50:04.783Z,30.02
2022-10-24T16:53:08.829Z,26.90
2022-10-24T16:56:12.510Z,27.02
2022-10-24T16:59:15.860Z,25.57
2022-10-24T17:02:18.881Z,25.63
2022-10-24T17:05:23.034Z,27.52
2022-10-24T17:08:26.149Z,27.52
2022-10-24T17:11:46.080Z,29.50
2022-10-24T17:14:49.507Z,29.23
2022-10-24T17:17:52.420Z,31.80
2022-10-24T17:21:00.074Z,27.00
2022-10-24T17:24:03.177Z,28.23
2022-10-24T17:27:13.291Z,34.20
2022-10-24T17:30:18.488Z,33.40
2022-10-24T17:33:21.495Z,35.17
2022-10-24T17:36:30.145Z,34.58
2022-10-24T17:39:56.316Z,31.80
2022-10-24T17:42:59.373Z,28.38
2022-10-24T17:46:02.517Z,37.17
2022-10-24T17:49:05.475Z,31.67
2022-10-24T17:52:09.766Z,32.22
2022-10-24T17:55:47.414Z,27.42
2022-10-24T17:58:51.108Z,28.92
2022-10-24T18:01:54.151Z,26.80
2022-10-24T18:04:57.286Z,25.70
2022-10-24T18:08:00.172Z,26.55
2022-10-24T18:11:04.067Z,25.00
2022-10-24T18:14:07.166Z,24.25
2022-10-24T18:17:10.088Z,32.00
2022-10-24T18:20:14.895Z,29.50
2022-10-24T18:23:17.845Z,28.13
2022-10-24T18:26:22.798Z,28.73
2022-10-24T18:29:25.761Z,39.63
2022-10-24T18:32:28.668Z,42.30
2022-10-24T18:35:34.048Z,43.03
2022-10-24T18:38:37.384Z,44.55
2022-10-24T18:42:09.714Z,42.92
2022-10-24T18:45:14.209Z,38.55
2022-10-24T18:48:17.529Z,35.77
2022-10-24T18:51:28.890Z,32.40
2022-10-24T18:54:31.802Z,29.58
2022-10-24T18:57:36.536Z,28.85
2022-10-24T19:00:39.443Z,27.90
2022-10-24T19:03:42.680Z,32.60
2022-10-24T19:06:45.957Z,32.20
2022-10-24T19:09:48.911Z,32.72
2022-10-24T19:12:52.210Z,30.95
2022-10-24T19:16:00.220Z,31.92
2022-10-24T19:19:03.295Z,33.70
2022-10-24T19:22:06.286Z,30.03
2022-10-24T19:25:09.419Z,31.85
2022-10-24T19:28:15.489Z,107.22
2022-10-24T19:31:18.428Z,37.22
2022-10-24T19:34:21.330Z,50.73
2022-10-24T19:37:25.408Z,44.73
2022-10-24T19:40:28.311Z,59.53
2022-10-24T19:43:32.154Z,42.45
2022-10-24T19:46:35.114Z,38.45
2022-10-24T19:49:38.001Z,38.47
2022-10-24T19:52:41.021Z,41.27
2022-10-24T19:55:44.042Z,40.67
2022-10-24T19:58:49.309Z,39.85
2022-10-24T20:01:52.335Z,38.75
2022-10-24T20:04:55.346Z,39.20
2022-10-24T20:07:58.424Z,39.67
2022-10-24T20:11:01.464Z,40.58
2022-10-24T20:14:04.357Z,36.45
2022-10-24T20:17:07.322Z,40.85
2022-10-24T20:20:11.335Z,36.33
2022-10-24T20:23:14.369Z,45.13
2022-10-24T20:26:19.412Z,39.50
2022-10-24T20:29:22.286Z,40.28
2022-10-24T20:32:25.250Z,41.63
2022-10-24T20:35:28.136Z,41.40
2022-10-24T20:38:33.411Z,41.93
2022-10-24T20:41:36.490Z,40.35
2022-10-24T20:44:39.372Z,39.10
2022-10-24T20:47:42.278Z,41.22
2022-10-24T20:50:45.259Z,45.50
2022-10-24T20:53:48.173Z,39.50
2022-10-24T20:56:51.064Z,40.80
2022-10-24T20:59:53.965Z,42.97
2022-10-24T21:02:56.893Z,40.25
2022-10-24T21:05:59.824Z,49.10
2022-10-24T21:12:12.091Z,38.70
2022-10-24T21:15:15.021Z,37.83
2022-10-24T21:18:17.958Z,37.75
2022-10-24T21:21:22.362Z,38.30
2022-10-24T21:24:25.256Z,38.33
2022-10-24T21:27:28.223Z,37.92
2022-10-24T21:30:31.149Z,37.22
2022-10-24T21:33:34.198Z,36.10
2022-10-24T21:36:37.105Z,36.63
2022-10-24T21:39:40.006Z,34.50
2022-10-24T21:42:42.910Z,34.22
2022-10-24T21:45:45.809Z,33.15
2022-10-24T21:48:49.112Z,33.00
2022-10-24T21:51:52.055Z,34.10
2022-10-24T21:54:55.034Z,34.33
2022-10-24T21:57:57.936Z,47.60
2022-10-24T22:01:00.967Z,41.15
2022-10-24T22:04:04.647Z,33.78
2022-10-24T22:07:08.734Z,32.47
2022-10-24T22:10:11.637Z,32.30
2022-10-24T22:13:14.577Z,32.10
2022-10-24T22:16:18.913Z,30.83
2022-10-24T22:19:21.804Z,31.60
2022-10-24T22:22:24.733Z,32.83
2022-10-24T22:25:27.603Z,33.17
2022-10-24T22:28:30.502Z,33.78
2022-10-24T22:31:33.706Z,33.05
2022-10-24T22:34:36.879Z,32.70
2022-10-24T22:37:40.082Z,31.37
2022-10-24T22:40:43.202Z,30.73
2022-10-24T22:43:46.281Z,31.55
2022-10-24T22:46:49.131Z,33.03
2022-10-24T22:50:03.769Z,33.22
2022-10-24T22:53:11.509Z,32.13
2022-10-24T22:56:27.249Z,33.27
2022-10-24T22:59:30.584Z,31.40
2022-10-24T23:02:36.526Z,31.83
2022-10-24T23:08:59.665Z,34.53
2022-10-24T23:12:02.838Z,36.13
2022-10-24T23:15:06.384Z,33.65
2022-10-24T23:18:10.788Z,33.58
2022-10-24T23:21:41.049Z,33.80
2022-10-24T23:24:44.276Z,31.53
2022-10-24T23:27:47.569Z,33.23
2022-10-24T23:30:51.054Z,33.42
2022-10-24T23:33:54.660Z,33.10
2022-10-24T23:37:02.497Z,32.63
2022-10-24T23:40:17.652Z,32.50
2022-10-24T23:43:21.067Z,31.20
2022-10-24T23:46:30.933Z,32.15
2022-10-24T23:50:16.609Z,29.92
2022-10-24T23:53:51.282Z,31.80
2022-10-24T23:56:54.498Z,30.00
2022-10-24T23:59:57.398Z,31.10
